sensor_id;sensor_type;location;lat;lon;timestamp;pressure;altitude;pressure_sealevel;temperature;humidity
19884;BME280;10104;50.732;10.174;2024-03-08T00:00:45;98216.91;;;-0.37;100.00
19884;BME280;10104;50.732;10.174;2024-03-08T00:03:25;98226.41;;;-0.25;100.00
19884;BME280;10104;50.732;10.174;2024-03-08T00:06:06;98225.50;;;-0.37;100.00
19884;BME280;10104;50.732;10.174;2024-03-08T00:08:47;98216.19;;;-0.39;100.00
19884;BME280;10104;50.732;10.174;2024-03-08T00:11:28;98216.72;;;-0.47;100.00
19884;BME280;10104;50.732;10.174;2024-03-08T00:14:08;98211.09;;;-0.41;100.00
19884;BME280;10104;50.732;10.174;2024-03-08T00:16:48;98212.66;;;-0.38;100.00
19884;BME280;10104;50.732;10.174;2024-03-08T00:19:28;98204.47;;;-0.45;100.00
19884;BME280;10104;50.732;10.174;2024-03-08T00:22:08;98203.19;;;-0.39;100.00
19884;BME280;10104;50.732;10.174;2024-03-08T00:24:50;98210.50;;;-0.45;100.00
19884;BME280;10104;50.732;10.174;2024-03-08T00:27:33;98208.59;;;-0.43;100.00
19884;BME280;10104;50.732;10.174;2024-03-08T00:30:13;98206.13;;;-0.44;100.00
19884;BME280;10104;50.732;10.174;2024-03-08T00:32:54;98205.78;;;-0.39;100.00
19884;BME280;10104;50.732;10.174;2024-03-08T00:35:34;98206.34;;;-0.47;100.00
19884;BME280;10104;50.732;10.174;2024-03-08T00:38:14;98199.66;;;-0.62;100.00
19884;BME280;10104;50.732;10.174;2024-03-08T00:40:55;98196.44;;;-0.66;100.00
19884;BME280;10104;50.732;10.174;2024-03-08T00:43:37;98186.38;;;-0.70;100.00
19884;BME280;10104;50.732;10.174;2024-03-08T00:46:17;98190.16;;;-0.74;100.00
19884;BME280;10104;50.732;10.174;2024-03-08T00:48:57;98185.06;;;-0.76;100.00
19884;BME280;10104;50.732;10.174;2024-03-08T00:51:38;98189.63;;;-0.79;100.00
19884;BME280;10104;50.732;10.174;2024-03-08T00:54:18;98188.28;;;-0.85;100.00
19884;BME280;10104;50.732;10.174;2024-03-08T00:56:58;98190.50;;;-0.92;100.00
19884;BME280;10104;50.732;10.174;2024-03-08T00:59:39;98186.13;;;-0.91;100.00
19884;BME280;10104;50.732;10.174;2024-03-08T01:02:19;98179.41;;;-0.94;100.00
19884;BME280;10104;50.732;10.174;2024-03-08T01:04:59;98181.06;;;-0.93;100.00
19884;BME280;10104;50.732;10.174;2024-03-08T01:07:39;98187.00;;;-1.03;100.00
19884;BME280;10104;50.732;10.174;2024-03-08T01:10:20;98182.91;;;-1.18;100.00
19884;BME280;10104;50.732;10.174;2024-03-08T01:13:00;98180.31;;;-1.18;100.00
19884;BME280;10104;50.732;10.174;2024-03-08T01:15:40;98181.75;;;-1.14;100.00
19884;BME280;10104;50.732;10.174;2024-03-08T01:18:22;98174.19;;;-1.17;100.00
19884;BME280;10104;50.732;10.174;2024-03-08T01:21:02;98158.88;;;-1.09;100.00
19884;BME280;10104;50.732;10.174;2024-03-08T01:23:42;98164.44;;;-1.27;100.00
19884;BME280;10104;50.732;10.174;2024-03-08T01:26:22;98166.50;;;-1.19;100.00
19884;BME280;10104;50.732;10.174;2024-03-08T01:29:03;98161.00;;;-1.27;100.00
19884;BME280;10104;50.732;10.174;2024-03-08T01:31:43;98152.72;;;-1.32;100.00
19884;BME280;10104;50.732;10.174;2024-03-08T01:34:23;98154.66;;;-1.36;100.00
19884;BME280;10104;50.732;10.174;2024-03-08T01:37:03;98148.09;;;-1.29;100.00
19884;BME280;10104;50.732;10.174;2024-03-08T01:39:43;98154.66;;;-1.36;100.00
19884;BME280;10104;50.732;10.174;2024-03-08T01:42:23;98140.97;;;-1.38;100.00
19884;BME280;10104;50.732;10.174;2024-03-08T01:45:07;98139.53;;;-1.42;100.00
19884;BME280;10104;50.732;10.174;2024-03-08T01:47:47;98138.63;;;-1.53;100.00
19884;BME280;10104;50.732;10.174;2024-03-08T01:53:28;98134.88;;;-1.49;100.00
19884;BME280;10104;50.732;10.174;2024-03-08T01:56:09;98126.38;;;-1.51;100.00
19884;BME280;10104;50.732;10.174;2024-03-08T01:58:50;98120.75;;;-1.45;100.00
19884;BME280;10104;50.732;10.174;2024-03-08T02:01:30;98122.09;;;-1.52;100.00
19884;BME280;10104;50.732;10.174;2024-03-08T02:04:10;98115.66;;;-1.47;100.00
19884;BME280;10104;50.732;10.174;2024-03-08T02:06:51;98121.50;;;-1.56;100.00
19884;BME280;10104;50.732;10.174;2024-03-08T02:09:31;98120.25;;;-1.63;100.00
19884;BME280;10104;50.732;10.174;2024-03-08T02:12:11;98118.28;;;-1.59;100.00
19884;BME280;10104;50.732;10.174;2024-03-08T02:14:53;98118.81;;;-1.67;100.00
19884;BME280;10104;50.732;10.174;2024-03-08T02:17:34;98111.84;;;-1.67;100.00
19884;BME280;10104;50.732;10.174;2024-03-08T02:20:14;98112.81;;;-1.68;100.00
19884;BME280;10104;50.732;10.174;2024-03-08T02:22:54;98109.38;;;-1.68;100.00
19884;BME280;10104;50.732;10.174;2024-03-08T02:25:35;98098.09;;;-1.80;100.00
19884;BME280;10104;50.732;10.174;2024-03-08T02:28:15;98099.34;;;-1.85;100.00
19884;BME280;10104;50.732;10.174;2024-03-08T02:30:58;98095.28;;;-1.89;100.00
19884;BME280;10104;50.732;10.174;2024-03-08T02:33:39;98102.03;;;-1.99;100.00
19884;BME280;10104;50.732;10.174;2024-03-08T02:36:19;98101.19;;;-1.87;100.00
19884;BME280;10104;50.732;10.174;2024-03-08T02:38:59;98102.34;;;-1.91;100.00
19884;BME280;10104;50.732;10.174;2024-03-08T02:41:41;98096.75;;;-1.98;100.00
19884;BME280;10104;50.732;10.174;2024-03-08T02:44:22;98096.03;;;-2.00;100.00
19884;BME280;10104;50.732;10.174;2024-03-08T02:47:03;98095.09;;;-1.99;100.00
19884;BME280;10104;50.732;10.174;2024-03-08T02:49:44;98092.28;;;-2.09;100.00
19884;BME280;10104;50.732;10.174;2024-03-08T02:52:24;98081.81;;;-2.07;100.00
19884;BME280;10104;50.732;10.174;2024-03-08T02:55:04;98088.25;;;-2.13;100.00
19884;BME280;10104;50.732;10.174;2024-03-08T02:57:52;98082.84;;;-2.10;100.00
19884;BME280;10104;50.732;10.174;2024-03-08T03:00:34;98082.97;;;-1.98;100.00
19884;BME280;10104;50.732;10.174;2024-03-08T03:03:14;98086.91;;;-2.18;100.00
19884;BME280;10104;50.732;10.174;2024-03-08T03:05:54;98079.03;;;-2.17;100.00
19884;BME280;10104;50.732;10.174;2024-03-08T03:08:37;98084.63;;;-2.23;100.00
19884;BME280;10104;50.732;10.174;2024-03-08T03:11:18;98077.56;;;-2.21;100.00
19884;BME280;10104;50.732;10.174;2024-03-08T03:13:59;98068.13;;;-2.22;100.00
19884;BME280;10104;50.732;10.174;2024-03-08T03:16:39;98071.53;;;-2.34;100.00
19884;BME280;10104;50.732;10.174;2024-03-08T03:19:19;98070.28;;;-2.28;100.00
19884;BME280;10104;50.732;10.174;2024-03-08T03:22:02;98070.09;;;-2.38;100.00
19884;BME280;10104;50.732;10.174;2024-03-08T03:24:43;98070.00;;;-2.36;100.00
19884;BME280;10104;50.732;10.174;2024-03-08T03:27:23;98063.66;;;-2.45;100.00
19884;BME280;10104;50.732;10.174;2024-03-08T03:30:04;98061.16;;;-2.47;100.00
19884;BME280;10104;50.732;10.174;2024-03-08T03:33:02;98063.16;;;-2.50;100.00
19884;BME280;10104;50.732;10.174;2024-03-08T03:35:48;98064.06;;;-2.51;100.00
19884;BME280;10104;50.732;10.174;2024-03-08T03:38:28;98066.25;;;-2.58;100.00
19884;BME280;10104;50.732;10.174;2024-03-08T03:41:08;98055.69;;;-2.55;100.00
19884;BME280;10104;50.732;10.174;2024-03-08T03:43:51;98052.78;;;-2.63;100.00
19884;BME280;10104;50.732;10.174;2024-03-08T03:46:31;98060.34;;;-2.60;100.00
19884;BME280;10104;50.732;10.174;2024-03-08T03:49:12;98059.81;;;-2.65;100.00
19884;BME280;10104;50.732;10.174;2024-03-08T03:51:52;98055.47;;;-2.64;100.00
19884;BME280;10104;50.732;10.174;2024-03-08T03:54:32;98052.44;;;-2.71;100.00
19884;BME280;10104;50.732;10.174;2024-03-08T03:57:13;98053.78;;;-2.65;100.00
19884;BME280;10104;50.732;10.174;2024-03-08T03:59:53;98055.88;;;-2.70;100.00
19884;BME280;10104;50.732;10.174;2024-03-08T04:02:33;98047.88;;;-2.80;100.00
19884;BME280;10104;50.732;10.174;2024-03-08T04:05:13;98046.44;;;-2.84;100.00
19884;BME280;10104;50.732;10.174;2024-03-08T04:07:54;98055.00;;;-2.83;100.00
19884;BME280;10104;50.732;10.174;2024-03-08T04:10:34;98053.25;;;-2.83;100.00
19884;BME280;10104;50.732;10.174;2024-03-08T04:13:15;98045.47;;;-2.83;100.00
19884;BME280;10104;50.732;10.174;2024-03-08T04:15:55;98040.22;;;-2.81;100.00
19884;BME280;10104;50.732;10.174;2024-03-08T04:18:35;98044.78;;;-2.85;100.00
19884;BME280;10104;50.732;10.174;2024-03-08T04:21:16;98048.47;;;-2.89;100.00
19884;BME280;10104;50.732;10.174;2024-03-08T04:23:56;98045.06;;;-2.90;100.00
19884;BME280;10104;50.732;10.174;2024-03-08T04:26:37;98042.47;;;-2.90;100.00
19884;BME280;10104;50.732;10.174;2024-03-08T04:29:17;98039.06;;;-2.90;100.00
19884;BME280;10104;50.732;10.174;2024-03-08T04:31:57;98035.94;;;-2.95;100.00
19884;BME280;10104;50.732;10.174;2024-03-08T04:34:38;98039.16;;;-2.92;100.00
19884;BME280;10104;50.732;10.174;2024-03-08T04:37:20;98040.00;;;-2.91;100.00
19884;BME280;10104;50.732;10.174;2024-03-08T04:40:03;98034.81;;;-2.91;100.00
19884;BME280;10104;50.732;10.174;2024-03-08T04:42:43;98029.50;;;-3.02;100.00
19884;BME280;10104;50.732;10.174;2024-03-08T04:45:23;98027.59;;;-3.13;100.00
19884;BME280;10104;50.732;10.174;2024-03-08T04:48:06;98029.50;;;-3.15;100.00
19884;BME280;10104;50.732;10.174;2024-03-08T04:50:46;98025.03;;;-3.13;100.00
19884;BME280;10104;50.732;10.174;2024-03-08T04:53:26;98021.16;;;-3.20;100.00
19884;BME280;10104;50.732;10.174;2024-03-08T04:56:07;98016.09;;;-3.21;100.00
19884;BME280;10104;50.732;10.174;2024-03-08T04:58:47;98015.97;;;-3.20;100.00
19884;BME280;10104;50.732;10.174;2024-03-08T05:01:27;98016.22;;;-3.10;100.00
19884;BME280;10104;50.732;10.174;2024-03-08T05:04:08;98020.88;;;-3.15;100.00
19884;BME280;10104;50.732;10.174;2024-03-08T05:06:49;98014.03;;;-3.16;100.00
19884;BME280;10104;50.732;10.174;2024-03-08T05:09:30;98010.09;;;-3.22;100.00
19884;BME280;10104;50.732;10.174;2024-03-08T05:12:12;98012.25;;;-3.29;100.00
19884;BME280;10104;50.732;10.174;2024-03-08T05:14:52;98010.09;;;-3.22;100.00
19884;BME280;10104;50.732;10.174;2024-03-08T05:17:33;98006.25;;;-3.29;100.00
19884;BME280;10104;50.732;10.174;2024-03-08T05:20:13;98005.00;;;-3.23;100.00
19884;BME280;10104;50.732;10.174;2024-03-08T05:22:54;98000.53;;;-3.34;100.00
19884;BME280;10104;50.732;10.174;2024-03-08T05:25:34;97996.47;;;-3.38;100.00
19884;BME280;10104;50.732;10.174;2024-03-08T05:28:14;97998.78;;;-3.34;100.00
19884;BME280;10104;50.732;10.174;2024-03-08T05:30:55;97997.22;;;-3.36;100.00
19884;BME280;10104;50.732;10.174;2024-03-08T05:33:36;98000.63;;;-3.36;100.00
19884;BME280;10104;50.732;10.174;2024-03-08T05:36:17;97998.03;;;-3.36;100.00
19884;BME280;10104;50.732;10.174;2024-03-08T05:38:57;97993.91;;;-3.26;100.00
19884;BME280;10104;50.732;10.174;2024-03-08T05:41:38;97994.41;;;-3.33;100.00
19884;BME280;10104;50.732;10.174;2024-03-08T05:44:21;97991.81;;;-3.33;100.00
19884;BME280;10104;50.732;10.174;2024-03-08T05:47:02;97996.38;;;-3.37;100.00
19884;BME280;10104;50.732;10.174;2024-03-08T05:49:42;97994.94;;;-3.41;100.00
19884;BME280;10104;50.732;10.174;2024-03-08T05:52:25;97998.03;;;-3.36;100.00
19884;BME280;10104;50.732;10.174;2024-03-08T05:55:06;97998.78;;;-3.34;100.00
19884;BME280;10104;50.732;10.174;2024-03-08T05:57:48;97998.13;;;-3.37;100.00
19884;BME280;10104;50.732;10.174;2024-03-08T06:00:28;97989.00;;;-3.43;100.00
19884;BME280;10104;50.732;10.174;2024-03-08T06:03:11;97995.81;;;-3.28;100.00
19884;BME280;10104;50.732;10.174;2024-03-08T06:05:51;97997.00;;;-3.33;100.00
19884;BME280;10104;50.732;10.174;2024-03-08T06:08:31;97993.59;;;-3.34;100.00
19884;BME280;10104;50.732;10.174;2024-03-08T06:11:11;97988.44;;;-3.34;100.00
19884;BME280;10104;50.732;10.174;2024-03-08T06:13:52;97993.59;;;-3.34;100.00
19884;BME280;10104;50.732;10.174;2024-03-08T06:16:35;97996.19;;;-3.34;100.00
19884;BME280;10104;50.732;10.174;2024-03-08T06:19:15;97997.13;;;-3.35;100.00
19884;BME280;10104;50.732;10.174;2024-03-08T06:21:55;97996.72;;;-3.29;100.00
19884;BME280;10104;50.732;10.174;2024-03-08T06:24:36;97998.47;;;-3.29;100.00
19884;BME280;10104;50.732;10.174;2024-03-08T06:27:18;97993.66;;;-3.21;100.00
19884;BME280;10104;50.732;10.174;2024-03-08T06:29:58;97995.19;;;-3.18;100.00
19884;BME280;10104;50.732;10.174;2024-03-08T06:32:39;97993.13;;;-3.13;100.00
19884;BME280;10104;50.732;10.174;2024-03-08T06:35:19;97997.28;;;-3.11;100.00
19884;BME280;10104;50.732;10.174;2024-03-08T06:38:00;97993.84;;;-3.11;100.00
19884;BME280;10104;50.732;10.174;2024-03-08T06:40:40;97996.03;;;-3.05;100.00
19884;BME280;10104;50.732;10.174;2024-03-08T06:43:20;97993.38;;;-2.91;100.00
19884;BME280;10104;50.732;10.174;2024-03-08T06:46:01;97988.81;;;-2.88;100.00
19884;BME280;10104;50.732;10.174;2024-03-08T06:48:43;97986.72;;;-2.82;100.00
19884;BME280;10104;50.732;10.174;2024-03-08T06:51:26;97986.13;;;-2.86;100.00
19884;BME280;10104;50.732;10.174;2024-03-08T06:54:07;97993.25;;;-2.90;100.00
19884;BME280;10104;50.732;10.174;2024-03-08T06:56:49;97982.28;;;-2.80;100.00
19884;BME280;10104;50.732;10.174;2024-03-08T06:59:29;97988.72;;;-2.73;100.00
19884;BME280;10104;50.732;10.174;2024-03-08T07:02:09;97989.84;;;-2.65;100.00
19884;BME280;10104;50.732;10.174;2024-03-08T07:04:50;97987.38;;;-2.54;100.00
19884;BME280;10104;50.732;10.174;2024-03-08T07:07:31;97990.91;;;-2.42;100.00
19884;BME280;10104;50.732;10.174;2024-03-08T07:10:11;97988.91;;;-2.38;100.00
19884;BME280;10104;50.732;10.174;2024-03-08T07:12:54;97978.63;;;-2.27;100.00
19884;BME280;10104;50.732;10.174;2024-03-08T07:15:35;97982.25;;;-2.17;100.00
19884;BME280;10104;50.732;10.174;2024-03-08T07:18:15;97985.66;;;-2.04;100.00
19884;BME280;10104;50.732;10.174;2024-03-08T07:20:56;97983.31;;;-1.96;100.00
19884;BME280;10104;50.732;10.174;2024-03-08T07:23:36;97981.13;;;-1.89;100.00
19884;BME280;10104;50.732;10.174;2024-03-08T07:26:26;97979.31;;;-1.76;100.00
19884;BME280;10104;50.732;10.174;2024-03-08T07:29:06;97976.28;;;-1.70;100.00
19884;BME280;10104;50.732;10.174;2024-03-08T07:31:48;97974.38;;;-1.55;100.00
19884;BME280;10104;50.732;10.174;2024-03-08T07:34:35;97969.56;;;-1.49;100.00
19884;BME280;10104;50.732;10.174;2024-03-08T07:37:17;97962.75;;;-1.39;100.00
19884;BME280;10104;50.732;10.174;2024-03-08T07:39:59;97955.72;;;-1.26;100.00
19884;BME280;10104;50.732;10.174;2024-03-08T07:42:39;97947.28;;;-1.05;100.00
19884;BME280;10104;50.732;10.174;2024-03-08T07:45:19;97953.19;;;-1.03;100.00
19884;BME280;10104;50.732;10.174;2024-03-08T07:48:02;97946.03;;;-0.89;100.00
19884;BME280;10104;50.732;10.174;2024-03-08T07:50:43;97945.91;;;-0.76;100.00
19884;BME280;10104;50.732;10.174;2024-03-08T07:53:23;97944.63;;;-0.59;100.00
19884;BME280;10104;50.732;10.174;2024-03-08T07:56:07;97941.44;;;-0.41;100.00
19884;BME280;10104;50.732;10.174;2024-03-08T07:58:47;97945.34;;;-0.13;100.00
19884;BME280;10104;50.732;10.174;2024-03-08T08:01:28;97925.22;;;-0.11;100.00
19884;BME280;10104;50.732;10.174;2024-03-08T08:04:08;97926.50;;;0.06;100.00
19884;BME280;10104;50.732;10.174;2024-03-08T08:06:52;97930.47;;;0.21;100.00
19884;BME280;10104;50.732;10.174;2024-03-08T08:09:35;97927.56;;;0.47;100.00
19884;BME280;10104;50.732;10.174;2024-03-08T08:12:15;97924.66;;;0.61;100.00
19884;BME280;10104;50.732;10.174;2024-03-08T08:14:56;97917.78;;;0.80;100.00
19884;BME280;10104;50.732;10.174;2024-03-08T08:17:36;97916.59;;;0.85;100.00
19884;BME280;10104;50.732;10.174;2024-03-08T08:20:17;97916.72;;;1.04;100.00
19884;BME280;10104;50.732;10.174;2024-03-08T08:22:58;97907.78;;;1.27;100.00
19884;BME280;10104;50.732;10.174;2024-03-08T08:25:39;97901.56;;;1.49;100.00
19884;BME280;10104;50.732;10.174;2024-03-08T08:28:19;97898.38;;;1.76;100.00
19884;BME280;10104;50.732;10.174;2024-03-08T08:31:00;97893.63;;;1.90;100.00
19884;BME280;10104;50.732;10.174;2024-03-08T08:33:40;97889.09;;;2.12;100.00
19884;BME280;10104;50.732;10.174;2024-03-08T08:36:21;97889.97;;;2.22;100.00
19884;BME280;10104;50.732;10.174;2024-03-08T08:39:01;97881.88;;;2.34;100.00
19884;BME280;10104;50.732;10.174;2024-03-08T08:41:43;97877.88;;;2.50;100.00
19884;BME280;10104;50.732;10.174;2024-03-08T08:44:23;97877.59;;;2.62;100.00
19884;BME280;10104;50.732;10.174;2024-03-08T08:47:04;97878.13;;;2.75;100.00
19884;BME280;10104;50.732;10.174;2024-03-08T08:49:54;97862.97;;;2.89;100.00
19884;BME280;10104;50.732;10.174;2024-03-08T08:52:34;97865.41;;;3.00;100.00
19884;BME280;10104;50.732;10.174;2024-03-08T08:55:17;97862.38;;;3.14;99.95
19884;BME280;10104;50.732;10.174;2024-03-08T08:58:01;97853.91;;;3.30;97.73
19884;BME280;10104;50.732;10.174;2024-03-08T09:00:43;97860.72;;;3.40;96.35
19884;BME280;10104;50.732;10.174;2024-03-08T09:03:24;97848.84;;;3.55;92.52
19884;BME280;10104;50.732;10.174;2024-03-08T09:06:05;97848.38;;;3.70;94.32
19884;BME280;10104;50.732;10.174;2024-03-08T09:08:45;97842.09;;;3.80;91.00
19884;BME280;10104;50.732;10.174;2024-03-08T09:11:26;97843.16;;;3.87;89.31
19884;BME280;10104;50.732;10.174;2024-03-08T09:14:07;97844.00;;;4.05;91.03
19884;BME280;10104;50.732;10.174;2024-03-08T09:16:47;97830.34;;;4.20;86.94
19884;BME280;10104;50.732;10.174;2024-03-08T09:19:28;97820.28;;;4.25;85.09
19884;BME280;10104;50.732;10.174;2024-03-08T09:22:08;97821.84;;;4.35;86.10
19884;BME280;10104;50.732;10.174;2024-03-08T09:24:48;97819.34;;;4.52;86.90
19884;BME280;10104;50.732;10.174;2024-03-08T09:27:28;97815.56;;;4.72;84.08
19884;BME280;10104;50.732;10.174;2024-03-08T09:30:10;97802.00;;;4.76;86.82
19884;BME280;10104;50.732;10.174;2024-03-08T09:32:53;97797.00;;;4.91;85.32
19884;BME280;10104;50.732;10.174;2024-03-08T09:35:36;97795.78;;;5.03;80.77
19884;BME280;10104;50.732;10.174;2024-03-08T09:38:16;97787.78;;;5.13;81.12
19884;BME280;10104;50.732;10.174;2024-03-08T09:40:56;97776.84;;;5.17;78.49
19884;BME280;10104;50.732;10.174;2024-03-08T09:43:38;97777.19;;;5.22;78.99
19884;BME280;10104;50.732;10.174;2024-03-08T09:46:19;97780.00;;;5.37;76.65
19884;BME280;10104;50.732;10.174;2024-03-08T09:48:59;97777.94;;;5.49;77.58
19884;BME280;10104;50.732;10.174;2024-03-08T09:51:41;97776.00;;;5.59;76.73
19884;BME280;10104;50.732;10.174;2024-03-08T09:54:21;97774.72;;;5.71;76.47
19884;BME280;10104;50.732;10.174;2024-03-08T09:57:04;97772.91;;;5.72;72.41
19884;BME280;10104;50.732;10.174;2024-03-08T09:59:44;97762.91;;;5.75;74.71
19884;BME280;10104;50.732;10.174;2024-03-08T10:02:28;97761.47;;;5.89;71.12
19884;BME280;10104;50.732;10.174;2024-03-08T10:05:08;97752.47;;;5.91;72.04
19884;BME280;10104;50.732;10.174;2024-03-08T10:07:50;97752.31;;;6.09;70.01
19884;BME280;10104;50.732;10.174;2024-03-08T10:10:30;97750.50;;;6.09;69.94
19884;BME280;10104;50.732;10.174;2024-03-08T10:13:11;97759.41;;;6.17;70.36
19884;BME280;10104;50.732;10.174;2024-03-08T10:15:53;97745.25;;;6.26;68.59
19884;BME280;10104;50.732;10.174;2024-03-08T10:18:34;97744.13;;;6.28;68.98
19884;BME280;10104;50.732;10.174;2024-03-08T10:21:14;97735.22;;;6.45;66.59
19884;BME280;10104;50.732;10.174;2024-03-08T10:23:56;97731.09;;;6.51;68.78
19884;BME280;10104;50.732;10.174;2024-03-08T10:26:36;97734.22;;;6.63;67.54
19884;BME280;10104;50.732;10.174;2024-03-08T10:29:18;97733.03;;;6.73;66.20
19884;BME280;10104;50.732;10.174;2024-03-08T10:31:59;97727.09;;;6.79;67.19
19884;BME280;10104;50.732;10.174;2024-03-08T10:34:39;97721.66;;;6.81;65.17
19884;BME280;10104;50.732;10.174;2024-03-08T10:37:22;97716.63;;;7.10;63.14
19884;BME280;10104;50.732;10.174;2024-03-08T10:40:04;97715.19;;;7.00;63.53
19884;BME280;10104;50.732;10.174;2024-03-08T10:42:53;97715.19;;;7.00;65.23
19884;BME280;10104;50.732;10.174;2024-03-08T10:45:38;97706.75;;;7.12;64.06
19884;BME280;10104;50.732;10.174;2024-03-08T10:48:28;97706.38;;;7.23;63.30
19884;BME280;10104;50.732;10.174;2024-03-08T10:51:19;97712.59;;;7.30;63.08
19884;BME280;10104;50.732;10.174;2024-03-08T10:53:59;97711.63;;;7.62;62.97
19884;BME280;10104;50.732;10.174;2024-03-08T10:56:39;97701.94;;;7.55;62.08
19884;BME280;10104;50.732;10.174;2024-03-08T10:59:20;97698.78;;;7.59;62.41
19884;BME280;10104;50.732;10.174;2024-03-08T11:02:02;97700.69;;;7.73;61.83
19884;BME280;10104;50.732;10.174;2024-03-08T11:04:48;97698.81;;;7.82;62.43
19884;BME280;10104;50.732;10.174;2024-03-08T11:07:35;97692.59;;;7.98;61.00
19884;BME280;10104;50.732;10.174;2024-03-08T11:10:19;97691.19;;;8.10;59.49
19884;BME280;10104;50.732;10.174;2024-03-08T11:13:00;97687.22;;;8.14;60.56
19884;BME280;10104;50.732;10.174;2024-03-08T11:15:42;97678.75;;;8.19;59.63
19884;BME280;10104;50.732;10.174;2024-03-08T11:18:22;97684.28;;;8.32;59.58
19884;BME280;10104;50.732;10.174;2024-03-08T11:21:03;97673.53;;;8.33;58.60
19884;BME280;10104;50.732;10.174;2024-03-08T11:24:06;97660.63;;;8.38;58.58
19884;BME280;10104;50.732;10.174;2024-03-08T11:26:46;97660.53;;;8.46;58.62
19884;BME280;10104;50.732;10.174;2024-03-08T11:32:11;97653.91;;;8.65;59.17
19884;BME280;10104;50.732;10.174;2024-03-08T11:34:53;97642.28;;;8.74;57.90
19884;BME280;10104;50.732;10.174;2024-03-08T11:37:34;97644.19;;;8.80;58.49
19884;BME280;10104;50.732;10.174;2024-03-08T11:40:17;97646.00;;;8.95;57.63
19884;BME280;10104;50.732;10.174;2024-03-08T11:42:59;97646.06;;;9.01;57.40
19884;BME280;10104;50.732;10.174;2024-03-08T11:45:39;97642.75;;;9.28;56.47
19884;BME280;10104;50.732;10.174;2024-03-08T11:48:21;97631.81;;;9.31;54.88
19884;BME280;10104;50.732;10.174;2024-03-08T11:51:01;97631.06;;;9.38;55.44
19884;BME280;10104;50.732;10.174;2024-03-08T11:53:42;97619.78;;;9.29;55.00
19884;BME280;10104;50.732;10.174;2024-03-08T11:56:26;97616.41;;;9.35;56.36
19884;BME280;10104;50.732;10.174;2024-03-08T11:59:11;97618.69;;;9.59;56.84
19884;BME280;10104;50.732;10.174;2024-03-08T12:02:03;97612.47;;;9.67;55.49
19884;BME280;10104;50.732;10.174;2024-03-08T12:04:43;97604.06;;;9.63;55.02
19884;BME280;10104;50.732;10.174;2024-03-08T12:07:26;97601.19;;;9.58;55.58
19884;BME280;10104;50.732;10.174;2024-03-08T12:12:58;97594.97;;;9.87;56.14
19884;BME280;10104;50.732;10.174;2024-03-08T12:15:43;97593.03;;;10.02;55.92
19884;BME280;10104;50.732;10.174;2024-03-08T12:18:25;97587.19;;;10.13;54.22
19884;BME280;10104;50.732;10.174;2024-03-08T12:21:06;97576.09;;;10.18;55.03
19884;BME280;10104;50.732;10.174;2024-03-08T12:24:08;97578.38;;;10.28;54.98
19884;BME280;10104;50.732;10.174;2024-03-08T12:26:49;97564.59;;;10.39;53.62
19884;BME280;10104;50.732;10.174;2024-03-08T12:29:30;97566.06;;;10.41;53.03
19884;BME280;10104;50.732;10.174;2024-03-08T12:32:10;97557.72;;;10.44;52.84
19884;BME280;10104;50.732;10.174;2024-03-08T12:34:52;97561.84;;;10.53;52.07
19884;BME280;10104;50.732;10.174;2024-03-08T12:37:33;97555.59;;;10.68;51.78
19884;BME280;10104;50.732;10.174;2024-03-08T12:40:13;97551.75;;;10.77;51.42
19884;BME280;10104;50.732;10.174;2024-03-08T12:42:57;97551.38;;;10.86;52.81
19884;BME280;10104;50.732;10.174;2024-03-08T12:45:38;97545.06;;;10.81;51.06
19884;BME280;10104;50.732;10.174;2024-03-08T12:48:18;97535.31;;;10.88;51.11
19884;BME280;10104;50.732;10.174;2024-03-08T12:51:01;97532.31;;;11.04;50.75
19884;BME280;10104;50.732;10.174;2024-03-08T12:53:42;97530.25;;;11.00;50.96
19884;BME280;10104;50.732;10.174;2024-03-08T12:56:31;97532.56;;;11.22;53.08
19884;BME280;10104;50.732;10.174;2024-03-08T12:59:13;97523.59;;;11.30;50.15
19884;BME280;10104;50.732;10.174;2024-03-08T13:01:53;97519.94;;;11.38;50.85
19884;BME280;10104;50.732;10.174;2024-03-08T13:04:35;97521.38;;;11.47;51.21
19884;BME280;10104;50.732;10.174;2024-03-08T13:07:16;97509.53;;;11.56;49.03
19884;BME280;10104;50.732;10.174;2024-03-08T13:09:57;97512.19;;;11.56;51.38
19884;BME280;10104;50.732;10.174;2024-03-08T13:12:43;97505.25;;;11.61;50.08
19884;BME280;10104;50.732;10.174;2024-03-08T13:15:23;97501.78;;;11.67;49.37
19884;BME280;10104;50.732;10.174;2024-03-08T13:18:03;97500.38;;;11.71;48.24
19884;BME280;10104;50.732;10.174;2024-03-08T13:20:43;97496.47;;;11.61;48.10
19884;BME280;10104;50.732;10.174;2024-03-08T13:23:29;97495.28;;;11.63;48.80
19884;BME280;10104;50.732;10.174;2024-03-08T13:26:10;97493.03;;;11.73;47.79
19884;BME280;10104;50.732;10.174;2024-03-08T13:28:55;97494.25;;;11.71;49.23
19884;BME280;10104;50.732;10.174;2024-03-08T13:31:36;97492.66;;;11.83;50.78
19884;BME280;10104;50.732;10.174;2024-03-08T13:34:17;97484.44;;;11.91;47.16
19884;BME280;10104;50.732;10.174;2024-03-08T13:36:58;97486.31;;;11.78;47.35
19884;BME280;10104;50.732;10.174;2024-03-08T13:39:41;97476.72;;;11.83;46.63
19884;BME280;10104;50.732;10.174;2024-03-08T13:42:23;97471.81;;;11.93;47.43
19884;BME280;10104;50.732;10.174;2024-03-08T13:45:13;97464.28;;;11.90;46.96
19884;BME280;10104;50.732;10.174;2024-03-08T13:47:55;97454.69;;;11.76;47.01
19884;BME280;10104;50.732;10.174;2024-03-08T13:50:35;97455.72;;;11.75;46.65
19884;BME280;10104;50.732;10.174;2024-03-08T13:53:16;97450.00;;;11.85;47.45
19884;BME280;10104;50.732;10.174;2024-03-08T13:55:56;97447.31;;;11.91;48.05
19884;BME280;10104;50.732;10.174;2024-03-08T13:58:36;97430.59;;;11.91;46.48
19884;BME280;10104;50.732;10.174;2024-03-08T14:01:17;97440.38;;;11.97;47.35
19884;BME280;10104;50.732;10.174;2024-03-08T14:03:57;97439.13;;;12.06;47.30
19884;BME280;10104;50.732;10.174;2024-03-08T14:06:37;97424.63;;;12.15;46.62